createdAt,value
2022-08-26T00:02:12.755Z,27.29
2022-08-26T00:04:40.955Z,27.65
2022-08-26T00:07:09.454Z,27.68
2022-08-26T00:09:40.100Z,26.97
2022-08-26T00:12:12.402Z,26.21
2022-08-26T00:14:41.212Z,25.90
2022-08-26T00:17:09.679Z,26.58
2022-08-26T00:19:38.359Z,27.21
2022-08-26T00:22:06.714Z,27.55
2022-08-26T00:24:34.999Z,27.56
2022-08-26T00:27:03.378Z,26.93
2022-08-26T00:29:37.408Z,26.24
2022-08-26T00:32:06.665Z,25.69
2022-08-26T00:34:36.307Z,25.55
2022-08-26T00:37:08.934Z,26.33
2022-08-26T00:39:38.688Z,26.99
2022-08-26T00:42:07.038Z,27.34
2022-08-26T00:44:35.328Z,27.36
2022-08-26T00:47:07.963Z,26.69
2022-08-26T00:49:39.991Z,25.93
2022-08-26T00:52:13.159Z,25.60
2022-08-26T00:54:47.044Z,26.34
2022-08-26T00:57:19.958Z,27.02
2022-08-26T00:59:52.840Z,27.24
2022-08-26T01:02:21.790Z,26.62
2022-08-26T01:04:56.489Z,25.86
2022-08-26T01:07:27.397Z,25.54
2022-08-26T01:09:57.095Z,26.18
2022-08-26T01:12:28.740Z,26.71
2022-08-26T01:14:57.321Z,27.05
2022-08-26T01:17:28.549Z,27.30
2022-08-26T01:20:10.057Z,26.99
2022-08-26T01:22:47.624Z,26.13
2022-08-26T01:25:17.471Z,25.45
2022-08-26T01:27:46.577Z,25.17
2022-08-26T01:30:19.161Z,25.91
2022-08-26T01:32:47.787Z,26.52
2022-08-26T01:35:18.184Z,26.92
2022-08-26T01:37:49.913Z,26.99
2022-08-26T01:40:19.817Z,26.29
2022-08-26T01:42:49.471Z,25.53
2022-08-26T01:45:21.969Z,25.22
2022-08-26T01:47:56.776Z,25.95
2022-08-26T01:50:31.698Z,26.70
2022-08-26T01:53:06.628Z,27.12
2022-08-26T01:55:38.623Z,27.22
2022-08-26T01:58:14.132Z,26.53
2022-08-26T02:00:44.081Z,25.75
2022-08-26T02:03:19.625Z,25.39
2022-08-26T02:05:57.029Z,26.02
2022-08-26T02:08:32.081Z,26.62
2022-08-26T02:11:01.291Z,26.95
2022-08-26T02:13:30.591Z,27.00
2022-08-26T02:16:00.855Z,26.30
2022-08-26T02:18:32.867Z,25.54
2022-08-26T02:21:01.559Z,24.93
2022-08-26T02:23:30.600Z,24.76
2022-08-26T02:26:19.824Z,25.60
2022-08-26T02:29:05.169Z,26.37
2022-08-26T02:31:37.051Z,26.78
2022-08-26T02:34:31.214Z,26.78
2022-08-26T02:37:03.717Z,25.89
2022-08-26T02:39:38.928Z,25.12
2022-08-26T02:42:07.447Z,24.83
2022-08-26T02:44:36.661Z,25.50
2022-08-26T02:47:05.227Z,26.18
2022-08-26T02:49:33.377Z,26.66
2022-08-26T02:52:01.898Z,26.71
2022-08-26T02:54:30.101Z,25.98
2022-08-26T02:56:58.242Z,25.19
2022-08-26T02:59:27.073Z,24.60
2022-08-26T03:01:58.166Z,24.48
2022-08-26T03:04:26.240Z,25.30
2022-08-26T03:06:55.517Z,25.98
2022-08-26T03:09:24.525Z,26.41
2022-08-26T03:11:53.128Z,26.48
2022-08-26T03:14:23.995Z,25.78
2022-08-26T03:16:54.103Z,25.02
2022-08-26T03:19:27.516Z,24.45
2022-08-26T03:21:57.838Z,24.35
2022-08-26T03:24:31.693Z,25.30
2022-08-26T03:27:02.011Z,26.01
2022-08-26T03:29:57.881Z,26.39
2022-08-26T03:32:27.243Z,26.27
2022-08-26T03:34:57.288Z,25.46
2022-08-26T03:37:26.383Z,24.69
2022-08-26T03:39:55.343Z,24.38
2022-08-26T03:42:23.706Z,25.02
2022-08-26T03:44:51.741Z,25.55
2022-08-26T03:47:20.217Z,25.92
2022-08-26T03:49:48.399Z,26.20
2022-08-26T03:52:19.317Z,26.17
2022-08-26T03:54:50.703Z,25.40
2022-08-26T03:57:18.879Z,24.64
2022-08-26T03:59:48.848Z,24.08
2022-08-26T04:02:18.196Z,23.91
2022-08-26T04:04:46.470Z,24.64
2022-08-26T04:07:14.980Z,25.35
2022-08-26T04:09:43.555Z,25.78
2022-08-26T04:12:12.416Z,25.87
2022-08-26T04:14:42.646Z,25.24
2022-08-26T04:17:12.963Z,24.52
2022-08-26T04:19:41.213Z,24.18
2022-08-26T04:22:09.736Z,24.73
2022-08-26T04:24:39.820Z,25.42
2022-08-26T04:27:10.403Z,25.84
2022-08-26T04:29:42.207Z,26.11
2022-08-26T04:32:11.137Z,26.01
2022-08-26T04:34:40.208Z,25.27
2022-08-26T04:37:10.844Z,24.54
2022-08-26T04:39:39.123Z,24.20
2022-08-26T04:42:08.645Z,24.92
2022-08-26T04:44:40.152Z,25.67
2022-08-26T04:47:13.913Z,26.11
2022-08-26T04:49:44.431Z,26.16
2022-08-26T04:52:12.793Z,25.45
2022-08-26T04:54:41.952Z,24.69
2022-08-26T04:57:10.391Z,24.34
2022-08-26T04:59:39.578Z,24.96
2022-08-26T05:02:09.425Z,25.64
2022-08-26T05:04:38.277Z,26.05
2022-08-26T05:07:10.857Z,26.31
2022-08-26T05:09:39.988Z,26.40
2022-08-26T05:12:13.203Z,25.75
2022-08-26T05:14:41.726Z,25.09
2022-08-26T05:17:14.814Z,24.59
2022-08-26T05:19:51.687Z,24.48
2022-08-26T05:22:25.744Z,25.33
2022-08-26T05:25:01.254Z,26.04
2022-08-26T05:28:04.250Z,26.50
2022-08-26T05:30:40.346Z,26.66
2022-08-26T05:39:12.569Z,25.25
2022-08-26T05:45:00.998Z,26.88
2022-08-26T05:47:36.014Z,27.29
2022-08-26T05:50:19.111Z,27.43
2022-08-26T05:53:00.829Z,26.79
2022-08-26T05:56:17.013Z,26.24
2022-08-26T05:59:37.904Z,25.61
2022-08-26T06:02:56.031Z,25.78
2022-08-26T06:05:24.543Z,26.76
2022-08-26T06:08:19.376Z,27.31
2022-08-26T06:10:50.968Z,27.76
2022-08-26T06:13:35.195Z,27.84
2022-08-26T06:16:08.864Z,27.17
2022-08-26T06:29:46.629Z,27.62
2022-08-26T06:32:29.140Z,28.26
2022-08-26T06:34:57.789Z,28.34
2022-08-26T06:37:28.823Z,27.79
2022-08-26T06:39:58.358Z,27.28
2022-08-26T06:42:26.472Z,26.88
2022-08-26T06:44:54.706Z,26.51
2022-08-26T06:47:22.654Z,26.22
2022-08-26T06:49:51.112Z,26.22
2022-08-26T06:52:23.097Z,27.14
2022-08-26T06:54:53.021Z,28.00
2022-08-26T06:57:21.201Z,28.48
2022-08-26T06:59:51.121Z,28.11
2022-08-26T07:02:20.839Z,27.58
2022-08-26T07:04:51.207Z,27.25
2022-08-26T07:07:19.429Z,27.05
2022-08-26T07:09:52.647Z,26.88
2022-08-26T07:12:21.656Z,26.97
2022-08-26T07:14:50.327Z,27.99
2022-08-26T07:17:19.339Z,28.78
2022-08-26T07:19:49.160Z,28.57
2022-08-26T07:22:19.063Z,28.14
2022-08-26T07:24:46.966Z,27.84
2022-08-26T07:27:16.694Z,27.65
2022-08-26T07:29:45.874Z,27.54
2022-08-26T07:32:15.343Z,27.48
2022-08-26T07:34:43.844Z,27.44
2022-08-26T07:37:12.240Z,27.42
2022-08-26T07:39:41.759Z,27.38
2022-08-26T07:42:15.470Z,27.36
2022-08-26T07:44:44.297Z,27.59
2022-08-26T07:47:25.808Z,28.73
2022-08-26T07:49:57.497Z,29.74
2022-08-26T07:52:27.601Z,29.90
2022-08-26T07:55:00.758Z,29.55
2022-08-26T07:57:30.440Z,29.22
2022-08-26T07:59:59.167Z,29.04
2022-08-26T08:02:28.844Z,28.97
2022-08-26T08:04:58.008Z,28.95
2022-08-26T08:07:45.092Z,28.91
2022-08-26T08:10:21.702Z,28.84
2022-08-26T08:12:55.422Z,28.82
2022-08-26T08:15:27.881Z,28.84
2022-08-26T08:18:00.204Z,28.87
2022-08-26T08:20:30.097Z,28.92
2022-08-26T08:22:58.040Z,28.96
2022-08-26T08:25:26.230Z,29.01
2022-08-26T08:27:54.154Z,29.05
2022-08-26T08:30:23.272Z,29.10
2022-08-26T08:32:52.399Z,29.15
2022-08-26T08:35:22.661Z,29.21
2022-08-26T08:37:54.267Z,29.26
2022-08-26T08:40:25.363Z,29.31
2022-08-26T08:42:59.295Z,29.38
2022-08-26T08:45:30.475Z,29.46
2022-08-26T08:48:11.718Z,29.55
2022-08-26T08:50:45.747Z,29.62
2022-08-26T08:53:19.378Z,29.67
2022-08-26T08:55:50.190Z,29.72
2022-08-26T08:58:21.670Z,29.74
2022-08-26T09:00:54.767Z,29.78
2022-08-26T09:04:01.530Z,29.85
2022-08-26T09:06:29.691Z,29.96
2022-08-26T09:08:58.391Z,29.99
2022-08-26T09:11:26.367Z,30.03
2022-08-26T09:13:56.208Z,30.06
2022-08-26T09:16:36.515Z,30.14
2022-08-26T09:19:19.309Z,30.24
2022-08-26T09:21:58.812Z,30.33
2022-08-26T09:24:30.282Z,30.45
2022-08-26T09:26:59.153Z,30.57
2022-08-26T09:29:34.045Z,30.68
2022-08-26T09:32:37.579Z,30.78
2022-08-26T09:35:23.766Z,30.92
2022-08-26T09:37:53.162Z,31.02
2022-08-26T09:40:28.400Z,31.06
2022-08-26T09:43:22.237Z,31.10
2022-08-26T09:45:59.458Z,31.19
2022-08-26T09:48:36.191Z,31.29
2022-08-26T09:51:24.421Z,31.42
2022-08-26T09:53:55.365Z,31.55
2022-08-26T09:56:23.531Z,31.71
2022-08-26T09:58:51.910Z,31.84
2022-08-26T10:01:46.399Z,31.96
2022-08-26T10:04:22.150Z,32.12
2022-08-26T10:06:59.750Z,32.30
2022-08-26T10:09:29.878Z,32.42
2022-08-26T10:12:05.846Z,32.56
2022-08-26T10:14:48.465Z,32.71
2022-08-26T10:17:26.781Z,32.81
2022-08-26T10:20:02.817Z,32.93
2022-08-26T10:22:43.609Z,33.05
2022-08-26T10:25:16.034Z,33.14
2022-08-26T10:28:12.974Z,33.23
2022-08-26T10:30:45.841Z,33.34
2022-08-26T10:33:15.500Z,33.46
2022-08-26T10:35:53.285Z,33.55
2022-08-26T10:38:29.550Z,33.64
2022-08-26T10:40:57.439Z,33.71
2022-08-26T10:43:34.678Z,33.79
2022-08-26T10:46:10.258Z,33.90
2022-08-26T10:48:59.806Z,33.99
2022-08-26T10:51:35.646Z,34.04
2022-08-26T10:54:14.209Z,34.09
2022-08-26T10:57:16.550Z,34.15
2022-08-26T11:00:38.330Z,34.26
2022-08-26T11:03:21.696Z,34.42
2022-08-26T11:06:19.552Z,34.49
2022-08-26T11:08:59.668Z,34.54
2022-08-26T11:11:39.625Z,34.58
2022-08-26T11:14:28.398Z,34.70
2022-08-26T11:16:59.090Z,34.81
2022-08-26T11:19:50.537Z,34.88
2022-08-26T11:22:36.254Z,34.98
2022-08-26T11:25:12.963Z,35.08
2022-08-26T11:27:41.694Z,35.21
2022-08-26T11:30:12.658Z,35.25
2022-08-26T11:32:41.526Z,35.31
2022-08-26T11:35:12.542Z,35.33
2022-08-26T11:37:41.229Z,35.34
2022-08-26T11:40:13.433Z,35.35
2022-08-26T11:42:44.966Z,35.35
2022-08-26T11:45:26.902Z,35.38
2022-08-26T11:47:55.003Z,35.37
2022-08-26T11:50:26.169Z,35.36
2022-08-26T11:53:04.303Z,35.40
2022-08-26T11:55:36.538Z,35.49
2022-08-26T11:58:05.857Z,35.55
2022-08-26T12:00:45.752Z,35.64
2022-08-26T12:03:19.926Z,35.72
2022-08-26T12:05:49.440Z,35.78
2022-08-26T12:08:22.124Z,35.83
2022-08-26T12:11:02.554Z,35.83
2022-08-26T12:13:30.556Z,35.82
2022-08-26T12:16:00.318Z,35.85
2022-08-26T12:18:36.977Z,35.88
2022-08-26T12:21:22.197Z,35.94
2022-08-26T12:23:56.259Z,35.93
2022-08-26T12:26:34.062Z,35.94
2022-08-26T12:29:19.711Z,35.96
2022-08-26T12:31:48.816Z,36.01
2022-08-26T12:34:18.517Z,36.10
2022-08-26T12:36:53.907Z,36.16
2022-08-26T12:39:45.246Z,36.17
2022-08-26T12:42:13.064Z,36.19
2022-08-26T12:44:53.905Z,36.21
2022-08-26T12:47:32.686Z,36.26
2022-08-26T12:50:18.425Z,36.30
2022-08-26T12:53:10.627Z,36.34
2022-08-26T12:55:43.831Z,36.39
2022-08-26T12:58:26.175Z,36.46
2022-08-26T13:01:14.578Z,36.55
2022-08-26T13:03:45.277Z,36.67
2022-08-26T13:06:15.902Z,36.82
2022-08-26T13:08:44.281Z,36.94
2022-08-26T13:11:22.551Z,37.05
2022-08-26T13:13:53.499Z,37.10
2022-08-26T13:16:22.330Z,37.10
2022-08-26T13:18:53.671Z,37.10
2022-08-26T13:21:37.569Z,37.17
2022-08-26T13:24:11.678Z,37.27
2022-08-26T13:26:40.734Z,37.34
2022-08-26T13:29:10.617Z,37.49
2022-08-26T13:31:40.457Z,37.69
2022-08-26T13:34:12.027Z,37.82
2022-08-26T13:36:40.298Z,37.92
2022-08-26T13:39:08.203Z,37.97
2022-08-26T13:41:36.759Z,38.03
2022-08-26T13:44:06.983Z,38.09
2022-08-26T13:46:35.046Z,38.17
2022-08-26T13:49:03.917Z,38.27
2022-08-26T13:51:32.395Z,38.45
2022-08-26T13:54:01.144Z,38.66
2022-08-26T13:56:30.156Z,38.83
2022-08-26T13:58:59.770Z,38.94
2022-08-26T14:01:30.105Z,39.09
2022-08-26T14:03:58.875Z,39.28
2022-08-26T14:06:26.830Z,39.48
2022-08-26T14:08:54.749Z,39.70
2022-08-26T14:11:25.045Z,39.94
2022-08-26T14:13:53.179Z,40.19
2022-08-26T14:16:34.679Z,40.42
2022-08-26T14:19:05.022Z,40.66
2022-08-26T14:21:36.799Z,40.90
2022-08-26T14:24:06.342Z,41.19
2022-08-26T14:26:34.598Z,41.53
2022-08-26T14:29:05.912Z,41.94
2022-08-26T14:31:35.599Z,42.32
2022-08-26T14:34:06.292Z,42.64
2022-08-26T14:36:35.239Z,42.93
2022-08-26T14:39:09.261Z,43.18
2022-08-26T14:41:45.616Z,43.56
2022-08-26T14:44:25.257Z,43.90
2022-08-26T14:46:54.452Z,44.17
2022-08-26T14:49:24.393Z,44.48
2022-08-26T14:51:52.354Z,44.82
2022-08-26T14:54:21.298Z,45.11
2022-08-26T14:57:05.122Z,45.34
2022-08-26T14:59:38.352Z,45.64
2022-08-26T15:02:08.068Z,45.98
2022-08-26T15:04:37.267Z,46.23
2022-08-26T15:07:05.347Z,46.56
2022-08-26T15:09:36.353Z,46.91
2022-08-26T15:12:05.667Z,47.24
2022-08-26T15:14:33.749Z,47.60
2022-08-26T15:17:02.029Z,47.87
2022-08-26T15:19:30.118Z,48.03
2022-08-26T15:22:04.940Z,48.18
2022-08-26T15:24:33.151Z,48.36
2022-08-26T15:27:02.204Z,48.65
2022-08-26T15:29:30.467Z,48.86
2022-08-26T15:32:05.428Z,48.87
2022-08-26T15:34:33.726Z,48.96
2022-08-26T15:37:02.302Z,49.10
2022-08-26T15:39:30.474Z,49.23
2022-08-26T15:42:00.029Z,49.33
2022-08-26T15:44:28.722Z,49.49
2022-08-26T15:46:58.781Z,49.72
2022-08-26T15:49:27.595Z,50.04
2022-08-26T15:51:55.657Z,50.33
2022-08-26T15:54:24.521Z,50.46
2022-08-26T15:56:53.262Z,50.61
2022-08-26T15:59:22.285Z,50.83
2022-08-26T16:01:51.797Z,51.03
2022-08-26T16:04:21.486Z,51.12
2022-08-26T16:06:51.615Z,51.12
2022-08-26T16:09:23.912Z,51.15
2022-08-26T16:11:57.419Z,51.28
2022-08-26T16:14:32.882Z,51.43
2022-08-26T16:17:01.282Z,51.39
2022-08-26T16:19:29.738Z,51.22
2022-08-26T16:21:57.959Z,51.02
2022-08-26T16:24:30.241Z,50.74
2022-08-26T16:26:58.824Z,50.48
2022-08-26T16:29:27.321Z,50.31
2022-08-26T16:31:55.279Z,50.18
2022-08-26T16:34:24.733Z,49.97
2022-08-26T16:36:53.237Z,49.81
2022-08-26T16:39:21.284Z,49.63
2022-08-26T16:41:49.314Z,49.47
2022-08-26T16:44:17.439Z,49.23
2022-08-26T16:46:45.802Z,48.89
2022-08-26T16:49:16.916Z,48.61
2022-08-26T16:51:45.589Z,48.24
2022-08-26T16:54:13.767Z,47.82
2022-08-26T16:56:41.682Z,47.45
2022-08-26T16:59:11.577Z,47.11
2022-08-26T17:01:39.877Z,46.54
2022-08-26T17:04:08.252Z,45.40
2022-08-26T17:06:36.855Z,44.04
2022-08-26T17:09:05.206Z,42.73
2022-08-26T17:11:33.842Z,41.47
2022-08-26T17:14:01.865Z,40.26
2022-08-26T17:16:30.174Z,39.21
2022-08-26T17:18:59.032Z,38.25
2022-08-26T17:21:28.414Z,37.37
2022-08-26T17:23:57.573Z,36.56
2022-08-26T17:26:26.921Z,35.83
2022-08-26T17:28:55.437Z,35.17
2022-08-26T17:31:25.374Z,34.58
2022-08-26T17:33:55.556Z,34.06
2022-08-26T17:36:28.015Z,33.56
2022-08-26T17:38:58.633Z,33.10
2022-08-26T17:41:27.131Z,32.66
2022-08-26T17:43:55.390Z,32.25
2022-08-26T17:46:24.634Z,31.86
2022-08-26T17:48:52.837Z,31.48
2022-08-26T17:51:23.014Z,31.11
2022-08-26T17:53:52.011Z,30.75
2022-08-26T17:56:24.200Z,30.41
2022-08-26T17:59:02.487Z,30.05
2022-08-26T18:01:32.773Z,29.72
2022-08-26T18:04:01.675Z,29.47
2022-08-26T18:06:30.836Z,29.22
2022-08-26T18:09:00.707Z,29.01
2022-08-26T18:11:32.145Z,28.80
2022-08-26T18:14:00.463Z,28.62
2022-08-26T18:16:31.853Z,28.46
2022-08-26T18:19:01.323Z,28.28
2022-08-26T18:21:29.332Z,28.13
2022-08-26T18:23:58.309Z,27.98
2022-08-26T18:26:34.505Z,27.86
2022-08-26T18:29:03.376Z,27.71
2022-08-26T18:31:31.553Z,27.58
2022-08-26T18:34:01.372Z,27.45
2022-08-26T18:36:32.699Z,27.32
2022-08-26T18:39:02.601Z,27.23
2022-08-26T18:41:32.707Z,27.13
2022-08-26T18:44:00.741Z,27.03
2022-08-26T18:46:28.804Z,26.96
2022-08-26T18:48:58.483Z,26.87
2022-08-26T18:51:32.914Z,26.78
2022-08-26T18:54:03.359Z,26.71
2022-08-26T18:56:32.239Z,26.65
2022-08-26T18:59:00.424Z,26.60
2022-08-26T19:01:30.128Z,26.54
2022-08-26T19:04:02.494Z,26.49
2022-08-26T19:06:33.723Z,26.47
2022-08-26T19:09:03.891Z,26.44
2022-08-26T19:11:42.316Z,26.41
2022-08-26T19:14:13.865Z,26.37
2022-08-26T19:16:45.930Z,26.31
2022-08-26T19:19:14.939Z,26.25
2022-08-26T19:21:43.135Z,26.17
2022-08-26T19:24:15.599Z,26.07
2022-08-26T19:26:45.956Z,25.97
2022-08-26T19:29:15.730Z,25.90
2022-08-26T19:31:44.173Z,25.85
2022-08-26T19:34:18.308Z,25.79
2022-08-26T19:36:49.644Z,25.72
2022-08-26T19:39:17.682Z,25.63
2022-08-26T19:41:45.589Z,25.56
2022-08-26T19:44:39.393Z,25.48
2022-08-26T19:47:09.801Z,25.39
2022-08-26T19:49:38.260Z,25.32
2022-08-26T19:52:06.351Z,25.22
2022-08-26T19:54:36.199Z,25.15
2022-08-26T19:57:04.950Z,25.05
2022-08-26T19:59:33.770Z,24.97
2022-08-26T20:02:05.059Z,24.89
2022-08-26T20:04:36.120Z,24.80
2022-08-26T20:07:05.337Z,24.71
2022-08-26T20:09:34.226Z,24.64
2022-08-26T20:12:04.372Z,24.58
2022-08-26T20:14:33.921Z,24.55
2022-08-26T20:17:04.759Z,24.53
2022-08-26T20:19:53.728Z,24.53
2022-08-26T20:22:23.438Z,24.54
2022-08-26T20:24:52.172Z,24.53
2022-08-26T20:27:22.278Z,24.51
2022-08-26T20:29:50.193Z,24.48
2022-08-26T20:32:19.619Z,24.45
2022-08-26T20:34:47.781Z,24.40
2022-08-26T20:37:16.683Z,24.36
2022-08-26T20:39:49.409Z,24.32
2022-08-26T20:42:20.009Z,24.28
2022-08-26T20:44:54.494Z,24.22
2022-08-26T20:47:23.278Z,24.11
2022-08-26T20:49:52.640Z,23.99
2022-08-26T20:52:20.922Z,23.89
2022-08-26T20:54:48.912Z,23.84
2022-08-26T20:57:16.917Z,23.82
2022-08-26T20:59:45.016Z,23.83
2022-08-26T21:02:12.921Z,23.84
2022-08-26T21:04:40.859Z,23.85
2022-08-26T21:07:08.822Z,23.82
2022-08-26T21:09:36.772Z,23.78
2022-08-26T21:12:06.705Z,23.73
2022-08-26T21:14:34.702Z,23.69
2022-08-26T21:17:02.683Z,23.66
2022-08-26T21:19:30.720Z,23.63
2022-08-26T21:21:59.611Z,23.62
2022-08-26T21:24:27.613Z,23.61
2022-08-26T21:26:55.598Z,23.59
2022-08-26T21:29:23.576Z,23.55
2022-08-26T21:31:51.579Z,23.48
2022-08-26T21:34:20.280Z,23.41
2022-08-26T21:36:48.897Z,23.33
2022-08-26T21:39:16.909Z,23.23
2022-08-26T21:41:45.742Z,23.14
2022-08-26T21:44:14.884Z,23.08
2022-08-26T21:46:44.395Z,23.04
2022-08-26T21:49:15.615Z,23.26
2022-08-26T21:51:45.977Z,24.42
2022-08-26T21:54:15.629Z,25.41
2022-08-26T21:56:46.583Z,25.83
2022-08-26T21:59:18.431Z,25.36
2022-08-26T22:01:47.082Z,24.76
2022-08-26T22:04:15.662Z,24.35
2022-08-26T22:06:54.947Z,24.05
2022-08-26T22:09:25.510Z,23.81
2022-08-26T22:11:56.819Z,23.63
2022-08-26T22:14:30.900Z,23.46
2022-08-26T22:16:59.959Z,23.34
2022-08-26T22:19:28.086Z,23.23
2022-08-26T22:21:56.108Z,23.12
2022-08-26T22:24:25.805Z,23.04
2022-08-26T22:26:54.601Z,23.00
2022-08-26T22:29:24.397Z,23.20
2022-08-26T22:31:52.925Z,24.35
2022-08-26T22:34:23.101Z,25.34
2022-08-26T22:36:51.401Z,25.77
2022-08-26T22:39:22.389Z,25.33
2022-08-26T22:41:52.106Z,24.73
2022-08-26T22:44:22.105Z,24.28
2022-08-26T22:46:54.373Z,23.96
2022-08-26T22:49:23.302Z,23.69
2022-08-26T22:51:51.244Z,23.46
2022-08-26T22:54:19.602Z,23.25
2022-08-26T22:56:47.543Z,23.07
2022-08-26T22:59:16.265Z,22.89
2022-08-26T23:01:44.729Z,23.01
2022-08-26T23:04:12.660Z,24.02
2022-08-26T23:06:43.355Z,24.98
2022-08-26T23:09:18.206Z,25.41
2022-08-26T23:11:48.368Z,24.89
2022-08-26T23:14:17.654Z,24.28
2022-08-26T23:16:45.815Z,23.82
2022-08-26T23:19:15.546Z,23.48
2022-08-26T23:21:43.767Z,23.20
2022-08-26T23:24:12.098Z,22.94
2022-08-26T23:26:41.634Z,22.70
2022-08-26T23:29:11.575Z,22.80
2022-08-26T23:31:41.283Z,23.84
2022-08-26T23:34:27.771Z,24.73
2022-08-26T23:36:59.061Z,25.10
2022-08-26T23:39:28.566Z,24.52
2022-08-26T23:44:50.118Z,23.47
2022-08-26T23:47:18.059Z,23.16
2022-08-26T23:49:45.954Z,22.89
2022-08-26T23:52:32.854Z,22.64
2022-08-26T23:55:00.759Z,22.79
2022-08-26T23:57:29.712Z,23.82
2022-08-26T23:59:57.936Z,24.65
